sensor_id;sensor_type;location;lat;lon;timestamp;P1;durP1;ratioP1;P2;durP2;ratioP2
5730;SDS011;2890;51.950;7.668;2024-03-02T00:01:48;4.40;;;4.10;;
5730;SDS011;2890;51.950;7.668;2024-03-02T00:04:14;5.30;;;4.90;;
5730;SDS011;2890;51.950;7.668;2024-03-02T00:06:43;4.60;;;4.20;;
5730;SDS011;2890;51.950;7.668;2024-03-02T00:09:10;4.27;;;3.87;;
5730;SDS011;2890;51.950;7.668;2024-03-02T00:11:37;3.87;;;3.57;;
5730;SDS011;2890;51.950;7.668;2024-03-02T00:14:04;4.67;;;4.20;;
5730;SDS011;2890;51.950;7.668;2024-03-02T00:16:30;4.20;;;3.90;;
5730;SDS011;2890;51.950;7.668;2024-03-02T00:19:00;3.93;;;3.67;;
5730;SDS011;2890;51.950;7.668;2024-03-02T00:21:27;5.13;;;3.30;;
5730;SDS011;2890;51.950;7.668;2024-03-02T00:23:57;3.97;;;3.70;;
5730;SDS011;2890;51.950;7.668;2024-03-02T00:26:24;4.07;;;3.77;;
5730;SDS011;2890;51.950;7.668;2024-03-02T00:28:51;4.73;;;4.30;;
5730;SDS011;2890;51.950;7.668;2024-03-02T00:31:22;4.10;;;3.80;;
5730;SDS011;2890;51.950;7.668;2024-03-02T00:33:48;4.33;;;4.03;;
5730;SDS011;2890;51.950;7.668;2024-03-02T00:36:15;4.70;;;4.40;;
5730;SDS011;2890;51.950;7.668;2024-03-02T00:38:44;4.60;;;4.03;;
5730;SDS011;2890;51.950;7.668;2024-03-02T00:41:17;4.30;;;4.00;;
5730;SDS011;2890;51.950;7.668;2024-03-02T00:43:47;3.90;;;3.60;;
5730;SDS011;2890;51.950;7.668;2024-03-02T00:46:17;4.13;;;3.47;;
5730;SDS011;2890;51.950;7.668;2024-03-02T00:48:47;4.13;;;3.83;;
5730;SDS011;2890;51.950;7.668;2024-03-02T00:51:17;3.97;;;3.67;;
5730;SDS011;2890;51.950;7.668;2024-03-02T00:53:44;4.43;;;4.13;;
5730;SDS011;2890;51.950;7.668;2024-03-02T00:56:11;4.17;;;3.83;;
5730;SDS011;2890;51.950;7.668;2024-03-02T00:58:39;5.17;;;3.90;;
5730;SDS011;2890;51.950;7.668;2024-03-02T01:01:05;4.33;;;3.80;;
5730;SDS011;2890;51.950;7.668;2024-03-02T01:03:33;4.10;;;3.80;;
5730;SDS011;2890;51.950;7.668;2024-03-02T01:05:59;4.20;;;3.50;;
5730;SDS011;2890;51.950;7.668;2024-03-02T01:08:26;4.93;;;3.53;;
5730;SDS011;2890;51.950;7.668;2024-03-02T01:10:53;4.43;;;3.90;;
5730;SDS011;2890;51.950;7.668;2024-03-02T01:13:20;4.00;;;3.60;;
5730;SDS011;2890;51.950;7.668;2024-03-02T01:15:49;4.00;;;3.70;;
5730;SDS011;2890;51.950;7.668;2024-03-02T01:18:15;4.50;;;4.20;;
5730;SDS011;2890;51.950;7.668;2024-03-02T01:20:42;3.77;;;3.47;;
5730;SDS011;2890;51.950;7.668;2024-03-02T01:23:08;4.00;;;3.70;;
5730;SDS011;2890;51.950;7.668;2024-03-02T01:25:35;4.60;;;3.40;;
5730;SDS011;2890;51.950;7.668;2024-03-02T01:28:01;3.70;;;3.40;;
5730;SDS011;2890;51.950;7.668;2024-03-02T01:30:29;3.70;;;3.40;;
5730;SDS011;2890;51.950;7.668;2024-03-02T01:32:56;3.93;;;3.63;;
5730;SDS011;2890;51.950;7.668;2024-03-02T01:35:24;3.80;;;3.50;;
5730;SDS011;2890;51.950;7.668;2024-03-02T01:37:51;3.50;;;3.20;;
5730;SDS011;2890;51.950;7.668;2024-03-02T01:40:18;3.40;;;3.10;;
5730;SDS011;2890;51.950;7.668;2024-03-02T01:42:45;4.20;;;3.80;;
5730;SDS011;2890;51.950;7.668;2024-03-02T01:45:11;3.63;;;3.37;;
5730;SDS011;2890;51.950;7.668;2024-03-02T01:47:38;4.00;;;3.70;;
5730;SDS011;2890;51.950;7.668;2024-03-02T01:50:06;3.83;;;3.53;;
5730;SDS011;2890;51.950;7.668;2024-03-02T01:52:33;3.63;;;3.33;;
5730;SDS011;2890;51.950;7.668;2024-03-02T01:55:00;3.80;;;3.47;;
5730;SDS011;2890;51.950;7.668;2024-03-02T01:57:26;3.77;;;3.47;;
5730;SDS011;2890;51.950;7.668;2024-03-02T01:59:53;4.33;;;3.70;;
5730;SDS011;2890;51.950;7.668;2024-03-02T02:02:19;4.63;;;4.00;;
5730;SDS011;2890;51.950;7.668;2024-03-02T02:04:46;3.40;;;3.10;;
5730;SDS011;2890;51.950;7.668;2024-03-02T02:07:14;3.63;;;3.33;;
5730;SDS011;2890;51.950;7.668;2024-03-02T02:09:41;3.97;;;3.67;;
5730;SDS011;2890;51.950;7.668;2024-03-02T02:12:07;3.80;;;3.50;;
5730;SDS011;2890;51.950;7.668;2024-03-02T02:14:34;3.97;;;3.63;;
5730;SDS011;2890;51.950;7.668;2024-03-02T02:17:01;3.80;;;3.47;;
5730;SDS011;2890;51.950;7.668;2024-03-02T02:19:27;3.43;;;3.20;;
5730;SDS011;2890;51.950;7.668;2024-03-02T02:21:55;3.60;;;3.30;;
5730;SDS011;2890;51.950;7.668;2024-03-02T02:24:22;3.13;;;2.93;;
5730;SDS011;2890;51.950;7.668;2024-03-02T02:26:48;6.47;;;3.50;;
5730;SDS011;2890;51.950;7.668;2024-03-02T02:29:15;3.67;;;3.37;;
5730;SDS011;2890;51.950;7.668;2024-03-02T02:31:41;3.90;;;3.60;;
5730;SDS011;2890;51.950;7.668;2024-03-02T02:34:08;4.20;;;3.70;;
5730;SDS011;2890;51.950;7.668;2024-03-02T02:36:36;3.87;;;3.57;;
5730;SDS011;2890;51.950;7.668;2024-03-02T02:39:05;3.10;;;2.90;;
5730;SDS011;2890;51.950;7.668;2024-03-02T02:41:32;3.70;;;3.40;;
5730;SDS011;2890;51.950;7.668;2024-03-02T02:43:59;3.50;;;3.20;;
5730;SDS011;2890;51.950;7.668;2024-03-02T02:46:25;3.83;;;3.50;;
5730;SDS011;2890;51.950;7.668;2024-03-02T02:48:52;3.70;;;3.40;;
5730;SDS011;2890;51.950;7.668;2024-03-02T02:51:18;3.33;;;3.00;;
5730;SDS011;2890;51.950;7.668;2024-03-02T02:53:46;3.80;;;3.47;;
5730;SDS011;2890;51.950;7.668;2024-03-02T02:56:13;3.40;;;3.20;;
5730;SDS011;2890;51.950;7.668;2024-03-02T02:58:40;3.67;;;3.37;;
5730;SDS011;2890;51.950;7.668;2024-03-02T03:01:07;3.30;;;3.10;;
5730;SDS011;2890;51.950;7.668;2024-03-02T03:03:34;3.67;;;3.13;;
5730;SDS011;2890;51.950;7.668;2024-03-02T03:06:00;3.00;;;2.80;;
5730;SDS011;2890;51.950;7.668;2024-03-02T03:08:27;3.30;;;3.00;;
5730;SDS011;2890;51.950;7.668;2024-03-02T03:10:53;3.43;;;3.20;;
5730;SDS011;2890;51.950;7.668;2024-03-02T03:13:21;3.70;;;3.40;;
5730;SDS011;2890;51.950;7.668;2024-03-02T03:15:48;3.80;;;3.50;;
5730;SDS011;2890;51.950;7.668;2024-03-02T03:18:14;3.87;;;3.57;;
5730;SDS011;2890;51.950;7.668;2024-03-02T03:20:41;3.30;;;3.00;;
5730;SDS011;2890;51.950;7.668;2024-03-02T03:23:08;3.30;;;3.10;;
5730;SDS011;2890;51.950;7.668;2024-03-02T03:25:34;3.93;;;3.30;;
5730;SDS011;2890;51.950;7.668;2024-03-02T03:28:01;3.57;;;3.27;;
5730;SDS011;2890;51.950;7.668;2024-03-02T03:30:29;3.97;;;3.23;;
5730;SDS011;2890;51.950;7.668;2024-03-02T03:32:56;3.70;;;3.20;;
5730;SDS011;2890;51.950;7.668;2024-03-02T03:35:22;3.30;;;3.10;;
5730;SDS011;2890;51.950;7.668;2024-03-02T03:37:49;3.50;;;3.20;;
5730;SDS011;2890;51.950;7.668;2024-03-02T03:40:15;3.83;;;3.40;;
5730;SDS011;2890;51.950;7.668;2024-03-02T03:42:43;4.07;;;3.67;;
5730;SDS011;2890;51.950;7.668;2024-03-02T03:45:09;3.80;;;3.40;;
5730;SDS011;2890;51.950;7.668;2024-03-02T03:47:37;3.90;;;3.50;;
5730;SDS011;2890;51.950;7.668;2024-03-02T03:50:04;3.57;;;3.27;;
5730;SDS011;2890;51.950;7.668;2024-03-02T03:52:32;3.50;;;3.20;;
5730;SDS011;2890;51.950;7.668;2024-03-02T03:54:58;3.50;;;3.20;;
5730;SDS011;2890;51.950;7.668;2024-03-02T03:57:25;3.50;;;3.30;;
5730;SDS011;2890;51.950;7.668;2024-03-02T03:59:52;3.50;;;3.20;;
5730;SDS011;2890;51.950;7.668;2024-03-02T04:02:18;3.70;;;3.30;;
5730;SDS011;2890;51.950;7.668;2024-03-02T04:04:46;3.80;;;3.50;;
5730;SDS011;2890;51.950;7.668;2024-03-02T04:07:13;4.33;;;3.93;;
5730;SDS011;2890;51.950;7.668;2024-03-02T04:09:39;4.00;;;3.57;;
5730;SDS011;2890;51.950;7.668;2024-03-02T04:12:06;4.10;;;3.80;;
5730;SDS011;2890;51.950;7.668;2024-03-02T04:14:33;3.53;;;3.23;;
5730;SDS011;2890;51.950;7.668;2024-03-02T04:16:59;3.37;;;3.07;;
5730;SDS011;2890;51.950;7.668;2024-03-02T04:19:26;3.30;;;3.00;;
5730;SDS011;2890;51.950;7.668;2024-03-02T04:21:54;3.90;;;3.50;;
5730;SDS011;2890;51.950;7.668;2024-03-02T04:24:20;3.90;;;3.60;;
5730;SDS011;2890;51.950;7.668;2024-03-02T04:26:47;4.07;;;3.77;;
5730;SDS011;2890;51.950;7.668;2024-03-02T04:29:13;4.40;;;4.00;;
5730;SDS011;2890;51.950;7.668;2024-03-02T04:31:40;3.80;;;3.50;;
5730;SDS011;2890;51.950;7.668;2024-03-02T04:34:06;3.50;;;3.20;;
5730;SDS011;2890;51.950;7.668;2024-03-02T04:36:33;4.37;;;4.07;;
5730;SDS011;2890;51.950;7.668;2024-03-02T04:39:01;3.77;;;3.40;;
5730;SDS011;2890;51.950;7.668;2024-03-02T04:41:27;3.00;;;2.70;;
5730;SDS011;2890;51.950;7.668;2024-03-02T04:43:53;3.53;;;3.23;;
5730;SDS011;2890;51.950;7.668;2024-03-02T04:46:20;5.40;;;3.63;;
5730;SDS011;2890;51.950;7.668;2024-03-02T04:48:46;5.10;;;3.83;;
5730;SDS011;2890;51.950;7.668;2024-03-02T04:51:20;4.10;;;3.80;;
5730;SDS011;2890;51.950;7.668;2024-03-02T04:53:46;9.03;;;3.47;;
5730;SDS011;2890;51.950;7.668;2024-03-02T04:56:14;3.30;;;3.03;;
5730;SDS011;2890;51.950;7.668;2024-03-02T04:59:04;3.67;;;3.37;;
5730;SDS011;2890;51.950;7.668;2024-03-02T05:01:31;3.53;;;3.33;;
5730;SDS011;2890;51.950;7.668;2024-03-02T05:03:57;4.23;;;3.80;;
5730;SDS011;2890;51.950;7.668;2024-03-02T05:06:24;3.87;;;3.57;;
5730;SDS011;2890;51.950;7.668;2024-03-02T05:08:50;3.87;;;3.57;;
5730;SDS011;2890;51.950;7.668;2024-03-02T05:11:18;3.50;;;3.20;;
5730;SDS011;2890;51.950;7.668;2024-03-02T05:14:02;4.60;;;4.20;;
5730;SDS011;2890;51.950;7.668;2024-03-02T05:16:29;4.40;;;3.97;;
5730;SDS011;2890;51.950;7.668;2024-03-02T05:18:56;3.60;;;3.30;;
5730;SDS011;2890;51.950;7.668;2024-03-02T05:21:22;4.10;;;3.57;;
5730;SDS011;2890;51.950;7.668;2024-03-02T05:23:49;4.23;;;3.37;;
5730;SDS011;2890;51.950;7.668;2024-03-02T05:26:15;4.23;;;3.93;;
5730;SDS011;2890;51.950;7.668;2024-03-02T05:28:43;3.83;;;3.53;;
5730;SDS011;2890;51.950;7.668;2024-03-02T05:31:09;4.93;;;3.50;;
5730;SDS011;2890;51.950;7.668;2024-03-02T05:33:37;3.53;;;3.23;;
5730;SDS011;2890;51.950;7.668;2024-03-02T05:36:04;3.70;;;3.40;;
5730;SDS011;2890;51.950;7.668;2024-03-02T05:38:30;3.93;;;3.63;;
5730;SDS011;2890;51.950;7.668;2024-03-02T05:40:57;5.40;;;3.83;;
5730;SDS011;2890;51.950;7.668;2024-03-02T05:43:23;4.33;;;4.03;;
5730;SDS011;2890;51.950;7.668;2024-03-02T05:45:51;4.47;;;3.90;;
5730;SDS011;2890;51.950;7.668;2024-03-02T05:48:17;4.07;;;3.67;;
5730;SDS011;2890;51.950;7.668;2024-03-02T05:50:44;7.73;;;5.27;;
5730;SDS011;2890;51.950;7.668;2024-03-02T05:53:10;8.70;;;6.33;;
5730;SDS011;2890;51.950;7.668;2024-03-02T05:55:37;5.80;;;5.40;;
5730;SDS011;2890;51.950;7.668;2024-03-02T05:58:03;5.97;;;5.50;;
5730;SDS011;2890;51.950;7.668;2024-03-02T06:00:47;6.07;;;4.80;;
5730;SDS011;2890;51.950;7.668;2024-03-02T06:03:15;4.87;;;4.37;;
5730;SDS011;2890;51.950;7.668;2024-03-02T06:05:42;5.60;;;5.10;;
5730;SDS011;2890;51.950;7.668;2024-03-02T06:08:08;4.97;;;4.57;;
5730;SDS011;2890;51.950;7.668;2024-03-02T06:10:35;4.63;;;4.23;;
5730;SDS011;2890;51.950;7.668;2024-03-02T06:13:01;5.97;;;4.67;;
5730;SDS011;2890;51.950;7.668;2024-03-02T06:15:28;4.30;;;4.00;;
5730;SDS011;2890;51.950;7.668;2024-03-02T06:17:54;4.67;;;4.37;;
5730;SDS011;2890;51.950;7.668;2024-03-02T06:20:22;5.37;;;4.97;;
5730;SDS011;2890;51.950;7.668;2024-03-02T06:22:48;5.70;;;5.20;;
5730;SDS011;2890;51.950;7.668;2024-03-02T06:25:15;5.13;;;4.73;;
5730;SDS011;2890;51.950;7.668;2024-03-02T06:27:41;5.03;;;4.53;;
5730;SDS011;2890;51.950;7.668;2024-03-02T06:30:08;4.70;;;4.30;;
5730;SDS011;2890;51.950;7.668;2024-03-02T06:32:36;5.00;;;4.57;;
5730;SDS011;2890;51.950;7.668;2024-03-02T06:35:02;7.37;;;4.90;;
5730;SDS011;2890;51.950;7.668;2024-03-02T06:37:32;6.17;;;5.57;;
5730;SDS011;2890;51.950;7.668;2024-03-02T06:39:58;4.77;;;4.37;;
5730;SDS011;2890;51.950;7.668;2024-03-02T06:42:25;5.47;;;4.97;;
5730;SDS011;2890;51.950;7.668;2024-03-02T06:44:51;4.80;;;4.37;;
5730;SDS011;2890;51.950;7.668;2024-03-02T06:47:18;5.27;;;4.87;;
5730;SDS011;2890;51.950;7.668;2024-03-02T06:49:45;5.37;;;4.87;;
5730;SDS011;2890;51.950;7.668;2024-03-02T06:52:11;5.60;;;5.10;;
5730;SDS011;2890;51.950;7.668;2024-03-02T06:54:39;5.87;;;4.80;;
5730;SDS011;2890;51.950;7.668;2024-03-02T06:57:06;4.93;;;4.53;;
5730;SDS011;2890;51.950;7.668;2024-03-02T06:59:32;4.23;;;3.83;;
5730;SDS011;2890;51.950;7.668;2024-03-02T07:01:59;4.80;;;4.40;;
5730;SDS011;2890;51.950;7.668;2024-03-02T07:04:26;5.13;;;4.70;;
5730;SDS011;2890;51.950;7.668;2024-03-02T07:06:53;4.73;;;4.33;;
5730;SDS011;2890;51.950;7.668;2024-03-02T07:09:20;6.13;;;4.67;;
5730;SDS011;2890;51.950;7.668;2024-03-02T07:11:49;4.57;;;4.27;;
5730;SDS011;2890;51.950;7.668;2024-03-02T07:14:15;5.67;;;5.17;;
5730;SDS011;2890;51.950;7.668;2024-03-02T07:16:42;5.23;;;4.83;;
5730;SDS011;2890;51.950;7.668;2024-03-02T07:19:08;4.70;;;4.30;;
5730;SDS011;2890;51.950;7.668;2024-03-02T07:21:35;4.60;;;4.13;;
5730;SDS011;2890;51.950;7.668;2024-03-02T07:24:02;5.00;;;4.60;;
5730;SDS011;2890;51.950;7.668;2024-03-02T07:26:29;5.50;;;4.60;;
5730;SDS011;2890;51.950;7.668;2024-03-02T07:28:57;4.33;;;4.03;;
5730;SDS011;2890;51.950;7.668;2024-03-02T07:31:24;4.90;;;4.50;;
5730;SDS011;2890;51.950;7.668;2024-03-02T07:33:51;5.10;;;4.70;;
5730;SDS011;2890;51.950;7.668;2024-03-02T07:36:17;4.50;;;4.20;;
5730;SDS011;2890;51.950;7.668;2024-03-02T07:38:44;5.50;;;4.47;;
5730;SDS011;2890;51.950;7.668;2024-03-02T07:41:11;4.60;;;4.17;;
5730;SDS011;2890;51.950;7.668;2024-03-02T07:43:37;4.30;;;3.90;;
5730;SDS011;2890;51.950;7.668;2024-03-02T07:46:05;4.90;;;4.53;;
5730;SDS011;2890;51.950;7.668;2024-03-02T07:48:32;4.87;;;4.47;;
5730;SDS011;2890;51.950;7.668;2024-03-02T07:50:58;4.90;;;4.47;;
5730;SDS011;2890;51.950;7.668;2024-03-02T07:53:25;4.00;;;3.60;;
5730;SDS011;2890;51.950;7.668;2024-03-02T07:55:51;4.70;;;4.40;;
5730;SDS011;2890;51.950;7.668;2024-03-02T07:58:18;4.70;;;4.30;;
5730;SDS011;2890;51.950;7.668;2024-03-02T08:00:45;4.67;;;3.80;;
5730;SDS011;2890;51.950;7.668;2024-03-02T08:03:13;4.87;;;4.47;;
5730;SDS011;2890;51.950;7.668;2024-03-02T08:05:40;4.77;;;4.30;;
5730;SDS011;2890;51.950;7.668;2024-03-02T08:08:06;5.00;;;4.23;;
5730;SDS011;2890;51.950;7.668;2024-03-02T08:10:33;4.27;;;3.97;;
5730;SDS011;2890;51.950;7.668;2024-03-02T08:12:59;4.93;;;4.53;;
5730;SDS011;2890;51.950;7.668;2024-03-02T08:15:26;5.50;;;5.00;;
5730;SDS011;2890;51.950;7.668;2024-03-02T08:17:52;3.97;;;3.67;;
5730;SDS011;2890;51.950;7.668;2024-03-02T08:20:20;8.80;;;4.30;;
5730;SDS011;2890;51.950;7.668;2024-03-02T08:22:47;4.00;;;3.70;;
5730;SDS011;2890;51.950;7.668;2024-03-02T08:25:13;4.47;;;4.07;;
5730;SDS011;2890;51.950;7.668;2024-03-02T08:27:41;4.60;;;4.20;;
5730;SDS011;2890;51.950;7.668;2024-03-02T08:30:07;5.07;;;4.67;;
5730;SDS011;2890;51.950;7.668;2024-03-02T08:32:35;3.93;;;3.63;;
5730;SDS011;2890;51.950;7.668;2024-03-02T08:35:02;5.10;;;4.50;;
5730;SDS011;2890;51.950;7.668;2024-03-02T08:37:31;5.60;;;4.03;;
5730;SDS011;2890;51.950;7.668;2024-03-02T08:39:57;4.20;;;3.90;;
5730;SDS011;2890;51.950;7.668;2024-03-02T08:42:24;4.17;;;3.77;;
5730;SDS011;2890;51.950;7.668;2024-03-02T08:44:50;4.07;;;3.77;;
5730;SDS011;2890;51.950;7.668;2024-03-02T08:47:17;5.23;;;4.10;;
5730;SDS011;2890;51.950;7.668;2024-03-02T08:49:44;4.07;;;3.77;;
5730;SDS011;2890;51.950;7.668;2024-03-02T08:52:10;4.10;;;3.70;;
5730;SDS011;2890;51.950;7.668;2024-03-02T08:54:38;4.70;;;4.00;;
5730;SDS011;2890;51.950;7.668;2024-03-02T08:57:05;4.13;;;3.83;;
5730;SDS011;2890;51.950;7.668;2024-03-02T08:59:32;3.90;;;3.60;;
5730;SDS011;2890;51.950;7.668;2024-03-02T09:01:58;8.40;;;4.50;;
5730;SDS011;2890;51.950;7.668;2024-03-02T09:04:25;4.03;;;3.73;;
5730;SDS011;2890;51.950;7.668;2024-03-02T09:06:53;4.13;;;3.83;;
5730;SDS011;2890;51.950;7.668;2024-03-02T09:09:19;3.97;;;3.67;;
5730;SDS011;2890;51.950;7.668;2024-03-02T09:11:47;4.70;;;4.40;;
5730;SDS011;2890;51.950;7.668;2024-03-02T09:14:13;4.60;;;4.30;;
5730;SDS011;2890;51.950;7.668;2024-03-02T09:16:40;4.20;;;3.90;;
5730;SDS011;2890;51.950;7.668;2024-03-02T09:19:07;3.83;;;3.53;;
5730;SDS011;2890;51.950;7.668;2024-03-02T09:21:34;4.00;;;3.70;;
5730;SDS011;2890;51.950;7.668;2024-03-02T09:24:01;3.47;;;3.17;;
5730;SDS011;2890;51.950;7.668;2024-03-02T09:26:28;4.17;;;3.73;;
5730;SDS011;2890;51.950;7.668;2024-03-02T09:28:56;4.00;;;3.70;;
5730;SDS011;2890;51.950;7.668;2024-03-02T09:31:23;4.17;;;3.87;;
5730;SDS011;2890;51.950;7.668;2024-03-02T09:33:49;3.80;;;3.47;;
5730;SDS011;2890;51.950;7.668;2024-03-02T09:36:18;4.03;;;3.73;;
5730;SDS011;2890;51.950;7.668;2024-03-02T09:38:45;4.07;;;3.77;;
5730;SDS011;2890;51.950;7.668;2024-03-02T09:41:12;3.90;;;3.60;;
5730;SDS011;2890;51.950;7.668;2024-03-02T09:43:39;3.30;;;3.00;;
5730;SDS011;2890;51.950;7.668;2024-03-02T09:46:08;3.90;;;3.60;;
5730;SDS011;2890;51.950;7.668;2024-03-02T09:48:35;3.57;;;3.27;;
5730;SDS011;2890;51.950;7.668;2024-03-02T09:51:01;3.50;;;3.20;;
5730;SDS011;2890;51.950;7.668;2024-03-02T09:53:28;4.27;;;3.20;;
5730;SDS011;2890;51.950;7.668;2024-03-02T09:55:58;3.50;;;3.20;;
5730;SDS011;2890;51.950;7.668;2024-03-02T09:58:25;3.50;;;3.23;;
5730;SDS011;2890;51.950;7.668;2024-03-02T10:00:51;2.73;;;2.53;;
5730;SDS011;2890;51.950;7.668;2024-03-02T10:03:19;6.00;;;3.30;;
5730;SDS011;2890;51.950;7.668;2024-03-02T10:05:46;3.33;;;3.03;;
5730;SDS011;2890;51.950;7.668;2024-03-02T10:08:16;3.40;;;2.83;;
5730;SDS011;2890;51.950;7.668;2024-03-02T10:10:43;2.80;;;2.60;;
5730;SDS011;2890;51.950;7.668;2024-03-02T10:13:10;3.87;;;3.43;;
5730;SDS011;2890;51.950;7.668;2024-03-02T10:15:38;7.70;;;3.03;;
5730;SDS011;2890;51.950;7.668;2024-03-02T10:18:08;4.00;;;2.80;;
5730;SDS011;2890;51.950;7.668;2024-03-02T10:20:36;2.60;;;2.40;;
5730;SDS011;2890;51.950;7.668;2024-03-02T10:23:10;3.87;;;2.73;;
5730;SDS011;2890;51.950;7.668;2024-03-02T10:25:37;2.67;;;2.47;;
5730;SDS011;2890;51.950;7.668;2024-03-02T10:28:04;2.90;;;2.70;;
5730;SDS011;2890;51.950;7.668;2024-03-02T10:30:31;2.90;;;2.50;;
5730;SDS011;2890;51.950;7.668;2024-03-02T10:32:58;3.07;;;2.20;;
5730;SDS011;2890;51.950;7.668;2024-03-02T10:35:24;2.27;;;2.07;;
5730;SDS011;2890;51.950;7.668;2024-03-02T10:37:53;4.57;;;3.10;;
5730;SDS011;2890;51.950;7.668;2024-03-02T10:40:21;3.20;;;2.73;;
5730;SDS011;2890;51.950;7.668;2024-03-02T10:42:48;2.77;;;2.57;;
5730;SDS011;2890;51.950;7.668;2024-03-02T10:45:16;2.80;;;2.20;;
5730;SDS011;2890;51.950;7.668;2024-03-02T10:47:43;1.80;;;1.70;;
5730;SDS011;2890;51.950;7.668;2024-03-02T10:50:09;2.47;;;2.10;;
5730;SDS011;2890;51.950;7.668;2024-03-02T10:52:36;2.30;;;2.10;;
5730;SDS011;2890;51.950;7.668;2024-03-02T10:55:06;2.70;;;2.40;;
5730;SDS011;2890;51.950;7.668;2024-03-02T10:57:37;3.23;;;2.53;;
5730;SDS011;2890;51.950;7.668;2024-03-02T11:00:08;4.60;;;2.43;;
5730;SDS011;2890;51.950;7.668;2024-03-02T11:02:40;3.07;;;1.83;;
5730;SDS011;2890;51.950;7.668;2024-03-02T11:05:09;2.43;;;2.23;;
5730;SDS011;2890;51.950;7.668;2024-03-02T11:07:37;2.80;;;2.30;;
5730;SDS011;2890;51.950;7.668;2024-03-02T11:10:11;3.40;;;3.10;;
5730;SDS011;2890;51.950;7.668;2024-03-02T11:12:38;4.03;;;2.23;;
5730;SDS011;2890;51.950;7.668;2024-03-02T11:15:09;5.23;;;2.50;;
5730;SDS011;2890;51.950;7.668;2024-03-02T11:17:36;3.20;;;1.97;;
5730;SDS011;2890;51.950;7.668;2024-03-02T11:20:05;2.60;;;2.40;;
5730;SDS011;2890;51.950;7.668;2024-03-02T11:22:33;3.53;;;1.90;;
5730;SDS011;2890;51.950;7.668;2024-03-02T11:25:00;3.23;;;2.10;;
5730;SDS011;2890;51.950;7.668;2024-03-02T11:30:50;2.70;;;2.10;;
5730;SDS011;2890;51.950;7.668;2024-03-02T11:33:26;1.70;;;1.60;;
5730;SDS011;2890;51.950;7.668;2024-03-02T11:35:56;2.30;;;2.00;;
5730;SDS011;2890;51.950;7.668;2024-03-02T11:38:27;1.77;;;1.60;;
5730;SDS011;2890;51.950;7.668;2024-03-02T11:40:54;1.80;;;1.60;;
5730;SDS011;2890;51.950;7.668;2024-03-02T11:43:22;2.27;;;1.97;;
5730;SDS011;2890;51.950;7.668;2024-03-02T11:45:49;2.10;;;1.90;;
5730;SDS011;2890;51.950;7.668;2024-03-02T11:48:22;3.57;;;1.77;;
5730;SDS011;2890;51.950;7.668;2024-03-02T11:50:51;3.03;;;2.30;;
5730;SDS011;2890;51.950;7.668;2024-03-02T11:53:18;2.20;;;2.00;;
5730;SDS011;2890;51.950;7.668;2024-03-02T11:55:45;2.37;;;1.50;;
5730;SDS011;2890;51.950;7.668;2024-03-02T11:58:12;2.30;;;2.00;;
5730;SDS011;2890;51.950;7.668;2024-03-02T12:00:40;2.17;;;1.97;;
5730;SDS011;2890;51.950;7.668;2024-03-02T12:03:08;3.60;;;1.80;;
5730;SDS011;2890;51.950;7.668;2024-03-02T12:05:35;2.73;;;1.80;;
5730;SDS011;2890;51.950;7.668;2024-03-02T12:08:02;3.03;;;1.90;;
5730;SDS011;2890;51.950;7.668;2024-03-02T12:10:31;2.13;;;1.93;;
5730;SDS011;2890;51.950;7.668;2024-03-02T12:12:58;1.90;;;1.70;;
5730;SDS011;2890;51.950;7.668;2024-03-02T12:15:25;1.97;;;1.80;;
5730;SDS011;2890;51.950;7.668;2024-03-02T12:17:56;2.17;;;1.97;;
5730;SDS011;2890;51.950;7.668;2024-03-02T12:20:24;3.60;;;1.67;;
5730;SDS011;2890;51.950;7.668;2024-03-02T12:22:51;2.00;;;1.30;;
5730;SDS011;2890;51.950;7.668;2024-03-02T12:25:19;2.33;;;1.60;;
5730;SDS011;2890;51.950;7.668;2024-03-02T12:27:46;1.60;;;1.10;;
5730;SDS011;2890;51.950;7.668;2024-03-02T12:30:13;1.70;;;1.33;;
5730;SDS011;2890;51.950;7.668;2024-03-02T12:32:40;2.13;;;1.40;;
5730;SDS011;2890;51.950;7.668;2024-03-02T12:35:08;1.97;;;1.47;;
5730;SDS011;2890;51.950;7.668;2024-03-02T12:37:42;3.40;;;1.57;;
5730;SDS011;2890;51.950;7.668;2024-03-02T12:40:10;1.93;;;1.53;;
5730;SDS011;2890;51.950;7.668;2024-03-02T12:42:37;2.90;;;1.90;;
5730;SDS011;2890;51.950;7.668;2024-03-02T12:45:04;2.00;;;1.50;;
5730;SDS011;2890;51.950;7.668;2024-03-02T12:47:31;2.03;;;1.30;;
5730;SDS011;2890;51.950;7.668;2024-03-02T12:49:58;1.70;;;1.10;;
5730;SDS011;2890;51.950;7.668;2024-03-02T12:52:26;1.60;;;1.30;;
5730;SDS011;2890;51.950;7.668;2024-03-02T12:54:52;1.50;;;1.30;;
5730;SDS011;2890;51.950;7.668;2024-03-02T12:57:24;1.90;;;1.40;;
5730;SDS011;2890;51.950;7.668;2024-03-02T12:59:51;2.73;;;1.60;;
5730;SDS011;2890;51.950;7.668;2024-03-02T13:02:18;2.20;;;1.70;;
5730;SDS011;2890;51.950;7.668;2024-03-02T13:04:44;2.30;;;2.10;;
5730;SDS011;2890;51.950;7.668;2024-03-02T13:07:18;1.77;;;1.57;;
5730;SDS011;2890;51.950;7.668;2024-03-02T13:09:47;1.80;;;1.53;;
5730;SDS011;2890;51.950;7.668;2024-03-02T13:12:14;1.80;;;1.47;;
5730;SDS011;2890;51.950;7.668;2024-03-02T13:14:41;2.07;;;1.27;;
5730;SDS011;2890;51.950;7.668;2024-03-02T13:17:07;1.60;;;1.17;;
5730;SDS011;2890;51.950;7.668;2024-03-02T13:19:34;1.60;;;1.30;;
5730;SDS011;2890;51.950;7.668;2024-03-02T13:22:01;1.93;;;1.27;;
5730;SDS011;2890;51.950;7.668;2024-03-02T13:24:28;2.33;;;2.13;;
5730;SDS011;2890;51.950;7.668;2024-03-02T13:26:56;2.67;;;1.83;;
5730;SDS011;2890;51.950;7.668;2024-03-02T13:29:23;1.70;;;1.53;;
5730;SDS011;2890;51.950;7.668;2024-03-02T13:31:50;1.70;;;1.40;;
5730;SDS011;2890;51.950;7.668;2024-03-02T13:34:16;1.80;;;1.40;;
5730;SDS011;2890;51.950;7.668;2024-03-02T13:36:43;1.57;;;1.33;;
5730;SDS011;2890;51.950;7.668;2024-03-02T13:39:10;2.00;;;1.70;;
5730;SDS011;2890;51.950;7.668;2024-03-02T13:41:40;1.70;;;1.60;;
5730;SDS011;2890;51.950;7.668;2024-03-02T13:44:08;1.70;;;1.37;;
5730;SDS011;2890;51.950;7.668;2024-03-02T13:46:34;2.00;;;1.47;;
5730;SDS011;2890;51.950;7.668;2024-03-02T13:49:01;2.23;;;1.40;;
5730;SDS011;2890;51.950;7.668;2024-03-02T13:51:27;1.80;;;1.40;;
5730;SDS011;2890;51.950;7.668;2024-03-02T13:53:54;1.63;;;1.30;;
5730;SDS011;2890;51.950;7.668;2024-03-02T13:56:20;1.60;;;1.40;;
5730;SDS011;2890;51.950;7.668;2024-03-02T13:58:47;1.70;;;1.57;;
5730;SDS011;2890;51.950;7.668;2024-03-02T14:01:15;1.70;;;1.50;;
5730;SDS011;2890;51.950;7.668;2024-03-02T14:03:41;1.70;;;1.30;;
5730;SDS011;2890;51.950;7.668;2024-03-02T14:06:08;2.80;;;1.37;;
5730;SDS011;2890;51.950;7.668;2024-03-02T14:08:35;2.53;;;1.30;;
5730;SDS011;2890;51.950;7.668;2024-03-02T14:11:01;1.80;;;1.10;;
5730;SDS011;2890;51.950;7.668;2024-03-02T14:13:28;2.43;;;1.30;;
5730;SDS011;2890;51.950;7.668;2024-03-02T14:15:54;1.40;;;1.10;;
5730;SDS011;2890;51.950;7.668;2024-03-02T14:18:22;1.67;;;1.20;;
5730;SDS011;2890;51.950;7.668;2024-03-02T14:20:49;1.33;;;1.07;;
5730;SDS011;2890;51.950;7.668;2024-03-02T14:23:17;1.53;;;0.93;;
5730;SDS011;2890;51.950;7.668;2024-03-02T14:25:46;1.70;;;1.40;;
5730;SDS011;2890;51.950;7.668;2024-03-02T14:28:16;2.60;;;1.70;;
5730;SDS011;2890;51.950;7.668;2024-03-02T14:30:44;1.50;;;1.23;;
5730;SDS011;2890;51.950;7.668;2024-03-02T14:33:11;1.50;;;1.40;;
5730;SDS011;2890;51.950;7.668;2024-03-02T14:35:40;2.00;;;1.33;;
5730;SDS011;2890;51.950;7.668;2024-03-02T14:38:06;3.20;;;1.57;;
5730;SDS011;2890;51.950;7.668;2024-03-02T14:40:33;1.67;;;1.40;;
5730;SDS011;2890;51.950;7.668;2024-03-02T14:42:59;2.20;;;1.47;;
5730;SDS011;2890;51.950;7.668;2024-03-02T14:45:25;1.87;;;1.43;;
5730;SDS011;2890;51.950;7.668;2024-03-02T14:47:51;1.67;;;1.57;;
5730;SDS011;2890;51.950;7.668;2024-03-02T14:50:18;2.00;;;1.80;;
5730;SDS011;2890;51.950;7.668;2024-03-02T14:52:46;2.10;;;1.90;;
5730;SDS011;2890;51.950;7.668;2024-03-02T14:55:12;3.00;;;1.47;;
5730;SDS011;2890;51.950;7.668;2024-03-02T14:57:39;1.90;;;1.30;;
5730;SDS011;2890;51.950;7.668;2024-03-02T15:00:06;2.07;;;1.30;;
5730;SDS011;2890;51.950;7.668;2024-03-02T15:02:33;2.07;;;1.27;;
5730;SDS011;2890;51.950;7.668;2024-03-02T15:05:00;1.70;;;1.50;;
5730;SDS011;2890;51.950;7.668;2024-03-02T15:07:26;1.70;;;1.60;;
5730;SDS011;2890;51.950;7.668;2024-03-02T15:09:54;1.50;;;1.13;;
5730;SDS011;2890;51.950;7.668;2024-03-02T15:12:21;1.73;;;1.27;;
5730;SDS011;2890;51.950;7.668;2024-03-02T15:14:48;2.77;;;1.20;;
5730;SDS011;2890;51.950;7.668;2024-03-02T15:17:14;1.50;;;1.00;;
5730;SDS011;2890;51.950;7.668;2024-03-02T15:19:42;2.73;;;1.10;;